sensor_id;sensor_type;location;lat;lon;timestamp;P1;durP1;ratioP1;P2;durP2;ratioP2
75244;SDS011;63841;51.438;5.440;2022-09-29T06:24:11;13.28;;;13.28;;
75244;SDS011;63841;51.438;5.440;2022-09-29T06:26:37;12.92;;;12.92;;
75244;SDS011;63841;51.438;5.440;2022-09-29T06:29:03;13.60;;;13.60;;
75244;SDS011;63841;51.438;5.440;2022-09-29T06:31:29;13.52;;;13.52;;
75244;SDS011;63841;51.438;5.440;2022-09-29T06:33:56;13.68;;;13.68;;
75244;SDS011;63841;51.438;5.440;2022-09-29T06:39:18;13.81;;;13.81;;
75244;SDS011;63841;51.438;5.440;2022-09-29T06:41:46;13.83;;;13.83;;
75244;SDS011;63841;51.438;5.440;2022-09-29T06:44:24;13.79;;;13.79;;
75244;SDS011;63841;51.438;5.440;2022-09-29T06:46:51;13.80;;;13.80;;
75244;SDS011;63841;51.438;5.440;2022-09-29T06:49:18;14.08;;;14.08;;
75244;SDS011;63841;51.438;5.440;2022-09-29T06:51:44;14.03;;;14.03;;
75244;SDS011;63841;51.438;5.440;2022-09-29T06:54:14;14.14;;;14.14;;
75244;SDS011;63841;51.438;5.440;2022-09-29T06:56:46;14.23;;;14.23;;
75244;SDS011;63841;51.438;5.440;2022-09-29T06:59:26;14.35;;;14.35;;
75244;SDS011;63841;51.438;5.440;2022-09-29T07:01:51;13.86;;;13.86;;
75244;SDS011;63841;51.438;5.440;2022-09-29T07:04:18;14.36;;;14.36;;
75244;SDS011;63841;51.438;5.440;2022-09-29T07:06:47;14.23;;;14.23;;
75244;SDS011;63841;51.438;5.440;2022-09-29T07:09:14;14.16;;;14.16;;
75244;SDS011;63841;51.438;5.440;2022-09-29T07:11:43;14.28;;;14.28;;
75244;SDS011;63841;51.438;5.440;2022-09-29T07:14:14;13.64;;;13.64;;
75244;SDS011;63841;51.438;5.440;2022-09-29T07:16:41;13.71;;;13.71;;
75244;SDS011;63841;51.438;5.440;2022-09-29T07:19:07;13.17;;;13.17;;
75244;SDS011;63841;51.438;5.440;2022-09-29T07:21:33;14.24;;;14.24;;
75244;SDS011;63841;51.438;5.440;2022-09-29T07:23:59;14.21;;;14.21;;
75244;SDS011;63841;51.438;5.440;2022-09-29T07:26:24;13.49;;;13.49;;
75244;SDS011;63841;51.438;5.440;2022-09-29T07:28:50;14.27;;;14.27;;
75244;SDS011;63841;51.438;5.440;2022-09-29T07:31:17;13.82;;;13.82;;
75244;SDS011;63841;51.438;5.440;2022-09-29T07:33:44;14.20;;;14.20;;
75244;SDS011;63841;51.438;5.440;2022-09-29T07:36:12;13.76;;;13.76;;
75244;SDS011;63841;51.438;5.440;2022-09-29T07:38:38;14.25;;;14.25;;
75244;SDS011;63841;51.438;5.440;2022-09-29T07:41:09;13.44;;;13.44;;
75244;SDS011;63841;51.438;5.440;2022-09-29T07:43:37;14.25;;;14.25;;
75244;SDS011;63841;51.438;5.440;2022-09-29T07:46:03;13.57;;;13.57;;
75244;SDS011;63841;51.438;5.440;2022-09-29T07:48:29;13.57;;;13.57;;
75244;SDS011;63841;51.438;5.440;2022-09-29T07:51:02;13.93;;;13.93;;
75244;SDS011;63841;51.438;5.440;2022-09-29T07:53:33;13.93;;;13.93;;
75244;SDS011;63841;51.438;5.440;2022-09-29T07:56:04;13.32;;;13.32;;
75244;SDS011;63841;51.438;5.440;2022-09-29T07:58:31;13.32;;;13.32;;
75244;SDS011;63841;51.438;5.440;2022-09-29T08:01:00;13.62;;;13.62;;
75244;SDS011;63841;51.438;5.440;2022-09-29T08:03:26;13.52;;;13.52;;
75244;SDS011;63841;51.438;5.440;2022-09-29T08:05:52;13.18;;;13.18;;
75244;SDS011;63841;51.438;5.440;2022-09-29T08:08:18;13.62;;;13.62;;
75244;SDS011;63841;51.438;5.440;2022-09-29T08:10:43;13.52;;;13.52;;
75244;SDS011;63841;51.438;5.440;2022-09-29T08:13:09;13.16;;;13.16;;
75244;SDS011;63841;51.438;5.440;2022-09-29T08:15:35;13.87;;;13.87;;
75244;SDS011;63841;51.438;5.440;2022-09-29T08:18:00;13.42;;;13.42;;
75244;SDS011;63841;51.438;5.440;2022-09-29T08:20:26;13.57;;;13.57;;
75244;SDS011;63841;51.438;5.440;2022-09-29T08:22:52;13.75;;;13.75;;
75244;SDS011;63841;51.438;5.440;2022-09-29T08:25:21;12.84;;;12.84;;
75244;SDS011;63841;51.438;5.440;2022-09-29T08:27:48;13.58;;;13.58;;
75244;SDS011;63841;51.438;5.440;2022-09-29T08:30:14;13.02;;;13.02;;
75244;SDS011;63841;51.438;5.440;2022-09-29T08:32:40;13.06;;;13.06;;
75244;SDS011;63841;51.438;5.440;2022-09-29T08:35:05;13.01;;;13.01;;
75244;SDS011;63841;51.438;5.440;2022-09-29T08:37:31;13.37;;;13.37;;
75244;SDS011;63841;51.438;5.440;2022-09-29T08:39:57;13.83;;;13.83;;
75244;SDS011;63841;51.438;5.440;2022-09-29T08:45:07;13.95;;;13.95;;
75244;SDS011;63841;51.438;5.440;2022-09-29T08:47:48;13.94;;;13.94;;
75244;SDS011;63841;51.438;5.440;2022-09-29T08:52:59;13.36;;;13.36;;
75244;SDS011;63841;51.438;5.440;2022-09-29T08:58:09;13.47;;;13.47;;
75244;SDS011;63841;51.438;5.440;2022-09-29T09:00:40;12.25;;;12.25;;
75244;SDS011;63841;51.438;5.440;2022-09-29T09:16:50;11.31;;;11.31;;
75244;SDS011;63841;51.438;5.440;2022-09-29T12:11:02;2.85;;;2.85;;
75244;SDS011;63841;51.438;5.440;2022-09-29T12:16:24;2.94;;;2.94;;
75244;SDS011;63841;51.438;5.440;2022-09-29T12:19:02;3.29;;;3.29;;
75244;SDS011;63841;51.438;5.440;2022-09-29T12:21:36;2.88;;;2.88;;
75244;SDS011;63841;51.438;5.440;2022-09-29T12:24:25;2.72;;;2.72;;
75244;SDS011;63841;51.438;5.440;2022-09-29T12:26:56;2.43;;;2.43;;
75244;SDS011;63841;51.438;5.440;2022-09-29T12:31:59;2.99;;;2.99;;
75244;SDS011;63841;51.438;5.440;2022-09-29T12:34:42;2.77;;;2.77;;
75244;SDS011;63841;51.438;5.440;2022-09-29T12:37:17;3.17;;;3.17;;
75244;SDS011;63841;51.438;5.440;2022-09-29T12:50:37;2.54;;;2.54;;
75244;SDS011;63841;51.438;5.440;2022-09-29T12:53:55;2.42;;;2.42;;
75244;SDS011;63841;51.438;5.440;2022-09-29T12:56:13;2.20;;;2.20;;
75244;SDS011;63841;51.438;5.440;2022-09-29T12:58:49;2.15;;;2.15;;
75244;SDS011;63841;51.438;5.440;2022-09-29T13:15:07;1.85;;;1.85;;
75244;SDS011;63841;51.438;5.440;2022-09-29T13:28:43;1.66;;;1.66;;
75244;SDS011;63841;51.438;5.440;2022-09-29T13:31:17;1.75;;;1.75;;
75244;SDS011;63841;51.438;5.440;2022-09-29T13:33:50;1.70;;;1.70;;
75244;SDS011;63841;51.438;5.440;2022-09-29T13:36:30;1.70;;;1.70;;
75244;SDS011;63841;51.438;5.440;2022-09-29T13:39:00;1.80;;;1.80;;
75244;SDS011;63841;51.438;5.440;2022-09-29T13:51:54;1.58;;;1.58;;
75244;SDS011;63841;51.438;5.440;2022-09-29T14:02:27;1.54;;;1.54;;
75244;SDS011;63841;51.438;5.440;2022-09-29T14:04:57;1.60;;;1.60;;
75244;SDS011;63841;51.438;5.440;2022-09-29T19:19:18;6.90;;;6.90;;
75244;SDS011;63841;51.438;5.440;2022-09-29T19:21:45;6.88;;;6.88;;
75244;SDS011;63841;51.438;5.440;2022-09-29T19:24:11;6.31;;;6.31;;
75244;SDS011;63841;51.438;5.440;2022-09-29T19:26:36;6.24;;;6.24;;
75244;SDS011;63841;51.438;5.440;2022-09-29T19:29:02;6.08;;;6.08;;
75244;SDS011;63841;51.438;5.440;2022-09-29T19:31:30;5.85;;;5.85;;
75244;SDS011;63841;51.438;5.440;2022-09-29T19:33:56;5.59;;;5.59;;
75244;SDS011;63841;51.438;5.440;2022-09-29T19:36:21;5.50;;;5.50;;
75244;SDS011;63841;51.438;5.440;2022-09-29T19:38:47;5.57;;;5.57;;
75244;SDS011;63841;51.438;5.440;2022-09-29T19:41:14;5.28;;;5.28;;
75244;SDS011;63841;51.438;5.440;2022-09-29T19:43:44;5.13;;;5.13;;
75244;SDS011;63841;51.438;5.440;2022-09-29T19:46:11;5.28;;;5.28;;
75244;SDS011;63841;51.438;5.440;2022-09-29T19:48:37;4.96;;;4.96;;
75244;SDS011;63841;51.438;5.440;2022-09-29T19:51:03;5.03;;;5.03;;
75244;SDS011;63841;51.438;5.440;2022-09-29T19:53:48;5.16;;;5.16;;
75244;SDS011;63841;51.438;5.440;2022-09-29T19:56:38;5.04;;;5.04;;
75244;SDS011;63841;51.438;5.440;2022-09-29T19:59:05;5.51;;;5.51;;
75244;SDS011;63841;51.438;5.440;2022-09-29T20:01:31;5.27;;;5.27;;
75244;SDS011;63841;51.438;5.440;2022-09-29T20:03:56;5.60;;;5.60;;
75244;SDS011;63841;51.438;5.440;2022-09-29T20:06:22;6.38;;;6.38;;
75244;SDS011;63841;51.438;5.440;2022-09-29T20:08:47;7.35;;;7.35;;
75244;SDS011;63841;51.438;5.440;2022-09-29T20:11:16;7.73;;;7.72;;
75244;SDS011;63841;51.438;5.440;2022-09-29T20:13:41;7.27;;;7.24;;
75244;SDS011;63841;51.438;5.440;2022-09-29T20:16:08;7.02;;;7.02;;
75244;SDS011;63841;51.438;5.440;2022-09-29T20:18:35;6.75;;;6.75;;
75244;SDS011;63841;51.438;5.440;2022-09-29T20:21:08;6.71;;;6.71;;
75244;SDS011;63841;51.438;5.440;2022-09-29T20:23:36;6.37;;;6.36;;
75244;SDS011;63841;51.438;5.440;2022-09-29T20:26:05;6.32;;;6.31;;
75244;SDS011;63841;51.438;5.440;2022-09-29T20:28:36;5.93;;;5.93;;
75244;SDS011;63841;51.438;5.440;2022-09-29T20:31:03;5.71;;;5.71;;
75244;SDS011;63841;51.438;5.440;2022-09-29T20:33:32;5.45;;;5.45;;
75244;SDS011;63841;51.438;5.440;2022-09-29T20:35:59;5.52;;;5.52;;
75244;SDS011;63841;51.438;5.440;2022-09-29T20:38:28;5.32;;;5.32;;
75244;SDS011;63841;51.438;5.440;2022-09-29T20:40:58;5.47;;;5.47;;
75244;SDS011;63841;51.438;5.440;2022-09-29T20:43:25;5.94;;;5.94;;
75244;SDS011;63841;51.438;5.440;2022-09-29T20:45:58;5.89;;;5.89;;
75244;SDS011;63841;51.438;5.440;2022-09-29T20:48:28;5.56;;;5.56;;
75244;SDS011;63841;51.438;5.440;2022-09-29T20:50:55;5.81;;;5.81;;
75244;SDS011;63841;51.438;5.440;2022-09-29T20:53:24;5.58;;;5.58;;
75244;SDS011;63841;51.438;5.440;2022-09-29T20:56:00;6.58;;;6.58;;
75244;SDS011;63841;51.438;5.440;2022-09-29T20:58:26;6.67;;;6.67;;
75244;SDS011;63841;51.438;5.440;2022-09-29T21:00:52;6.70;;;6.70;;
75244;SDS011;63841;51.438;5.440;2022-09-29T21:03:17;6.58;;;6.58;;
75244;SDS011;63841;51.438;5.440;2022-09-29T21:05:43;7.01;;;7.01;;
75244;SDS011;63841;51.438;5.440;2022-09-29T21:08:11;7.04;;;7.04;;
75244;SDS011;63841;51.438;5.440;2022-09-29T21:10:37;7.57;;;7.57;;
75244;SDS011;63841;51.438;5.440;2022-09-29T21:13:02;7.67;;;7.66;;
75244;SDS011;63841;51.438;5.440;2022-09-29T21:15:28;7.73;;;7.72;;
